createdAt,value
2022-11-19T00:01:22.403Z,8.98
2022-11-19T00:03:52.708Z,9.05
2022-11-19T00:06:23.111Z,8.98
2022-11-19T00:08:50.174Z,9.25
2022-11-19T00:11:42.082Z,8.82
2022-11-19T00:14:14.340Z,9.48
2022-11-19T00:16:42.004Z,8.75
2022-11-19T00:19:10.728Z,9.10
2022-11-19T00:21:37.419Z,9.23
2022-11-19T00:24:04.371Z,8.98
2022-11-19T00:26:31.047Z,10.02
2022-11-19T00:28:57.760Z,9.27
2022-11-19T00:31:24.583Z,8.93
2022-11-19T00:33:51.400Z,9.43
2022-11-19T00:36:18.256Z,10.32
2022-11-19T00:38:45.116Z,9.95
2022-11-19T00:41:12.480Z,10.02
2022-11-19T00:43:48.839Z,10.32
2022-11-19T00:46:27.847Z,10.77
2022-11-19T00:48:56.270Z,10.32
2022-11-19T00:51:24.807Z,10.35
2022-11-19T00:53:52.175Z,10.70
2022-11-19T00:56:21.238Z,10.10
2022-11-19T00:58:48.258Z,11.30
2022-11-19T01:01:16.725Z,10.77
2022-11-19T01:03:47.456Z,13.02
2022-11-19T01:06:19.403Z,10.55
2022-11-19T01:08:47.872Z,12.18
2022-11-19T01:11:22.456Z,11.88
2022-11-19T01:13:49.495Z,12.40
2022-11-19T01:16:25.549Z,12.43
2022-11-19T01:18:52.598Z,12.02
2022-11-19T01:21:21.580Z,12.80
2022-11-19T01:23:49.133Z,12.00
2022-11-19T01:26:16.360Z,13.82
2022-11-19T01:28:43.849Z,12.63
2022-11-19T01:31:18.753Z,13.23
2022-11-19T01:33:46.084Z,13.25
2022-11-19T01:36:16.316Z,14.68
2022-11-19T01:38:44.031Z,13.93
2022-11-19T01:41:10.836Z,15.43
2022-11-19T01:43:53.065Z,14.23
2022-11-19T01:46:22.510Z,16.13
2022-11-19T01:48:53.824Z,15.80
2022-11-19T01:51:28.380Z,17.77
2022-11-19T01:54:00.413Z,16.45
2022-11-19T01:56:29.206Z,18.10
2022-11-19T01:59:00.276Z,17.27
2022-11-19T02:01:29.091Z,17.23
2022-11-19T02:03:56.043Z,16.95
2022-11-19T02:06:22.962Z,16.88
2022-11-19T02:08:53.459Z,17.77
2022-11-19T02:11:29.238Z,17.42
2022-11-19T02:13:55.915Z,18.63
2022-11-19T02:16:44.339Z,17.45
2022-11-19T02:19:46.430Z,20.20
2022-11-19T02:22:34.402Z,19.38
2022-11-19T02:25:19.590Z,20.00
2022-11-19T02:27:49.378Z,20.30
2022-11-19T02:30:18.349Z,20.42
2022-11-19T02:33:09.707Z,19.63
2022-11-19T02:35:48.419Z,20.77
2022-11-19T02:38:32.307Z,21.63
2022-11-19T02:41:30.632Z,21.15
2022-11-19T02:44:22.975Z,21.25
2022-11-19T02:46:53.344Z,18.13
2022-11-19T02:49:25.877Z,18.08
2022-11-19T02:51:53.173Z,22.15
2022-11-19T02:54:19.904Z,20.83
2022-11-19T02:56:48.226Z,20.35
2022-11-19T02:59:36.484Z,21.35
2022-11-19T03:02:25.452Z,22.10
2022-11-19T03:04:53.147Z,22.73
2022-11-19T03:07:21.373Z,21.30
2022-11-19T03:09:57.447Z,21.35
2022-11-19T03:12:45.318Z,21.02
2022-11-19T03:16:01.028Z,21.75
2022-11-19T03:18:39.975Z,21.02
2022-11-19T03:21:30.316Z,21.75
2022-11-19T03:24:34.183Z,21.25
2022-11-19T03:27:04.916Z,22.45
2022-11-19T03:29:35.136Z,21.98
2022-11-19T03:32:07.447Z,23.77
2022-11-19T03:34:37.371Z,23.75
2022-11-19T03:37:06.685Z,22.27
2022-11-19T03:39:37.013Z,22.60
2022-11-19T03:42:09.426Z,22.88
2022-11-19T03:44:45.078Z,23.27
2022-11-19T03:47:20.537Z,24.55
2022-11-19T03:49:52.807Z,24.48
2022-11-19T03:52:21.387Z,23.17
2022-11-19T03:54:48.248Z,23.63
2022-11-19T03:57:18.874Z,24.00
2022-11-19T03:59:46.516Z,24.52
2022-11-19T04:02:14.979Z,24.27
2022-11-19T04:04:42.043Z,23.30
2022-11-19T04:07:16.014Z,23.15
2022-11-19T04:09:43.421Z,25.00
2022-11-19T04:12:19.779Z,25.75
2022-11-19T04:14:47.371Z,23.27
2022-11-19T04:17:14.875Z,23.83
2022-11-19T04:19:41.676Z,23.48
2022-11-19T04:22:08.740Z,24.60
2022-11-19T04:24:35.455Z,25.98
2022-11-19T04:27:02.456Z,24.30
2022-11-19T04:29:29.162Z,25.23
2022-11-19T04:31:55.906Z,25.48
2022-11-19T04:34:22.638Z,25.70
2022-11-19T04:36:49.315Z,24.98
2022-11-19T04:39:18.678Z,24.33
2022-11-19T04:41:45.732Z,24.52
2022-11-19T04:44:12.617Z,23.05
2022-11-19T04:46:40.864Z,21.88
2022-11-19T04:49:07.597Z,24.35
2022-11-19T04:51:34.372Z,24.33
2022-11-19T04:54:01.127Z,22.95
2022-11-19T04:56:27.900Z,23.42
2022-11-19T04:58:54.672Z,23.77
2022-11-19T05:01:21.907Z,24.00
2022-11-19T05:03:51.869Z,23.50
2022-11-19T05:06:18.944Z,24.20
2022-11-19T05:08:45.782Z,24.92
2022-11-19T05:11:12.600Z,24.27
2022-11-19T05:13:39.325Z,24.45
2022-11-19T05:16:06.392Z,24.35
2022-11-19T05:18:33.199Z,24.70
2022-11-19T05:21:00.247Z,21.70
2022-11-19T05:23:27.062Z,24.00
2022-11-19T05:25:53.786Z,23.95
2022-11-19T05:28:28.647Z,26.40
2022-11-19T05:31:04.599Z,24.85
2022-11-19T05:33:34.246Z,25.88
2022-11-19T05:36:01.654Z,26.13
2022-11-19T05:38:28.389Z,25.30
2022-11-19T05:40:55.119Z,25.75
2022-11-19T05:43:21.819Z,25.92
2022-11-19T05:45:48.501Z,29.38
2022-11-19T05:48:15.203Z,28.13
2022-11-19T05:50:42.759Z,27.23
2022-11-19T05:53:09.934Z,26.35
2022-11-19T05:55:36.691Z,27.00
2022-11-19T05:58:03.518Z,27.13
2022-11-19T06:00:30.243Z,26.08
2022-11-19T06:02:57.087Z,26.63
2022-11-19T06:05:23.861Z,26.50
2022-11-19T06:07:50.549Z,25.65
2022-11-19T06:10:17.354Z,28.85
2022-11-19T06:12:45.919Z,27.48
2022-11-19T06:15:13.476Z,27.52
2022-11-19T06:17:40.206Z,26.20
2022-11-19T06:20:08.821Z,25.85
2022-11-19T06:22:36.330Z,25.35
2022-11-19T06:25:04.935Z,24.25
2022-11-19T06:27:31.601Z,23.73
2022-11-19T06:29:58.361Z,24.02
2022-11-19T06:32:25.183Z,25.98
2022-11-19T06:34:51.880Z,24.63
2022-11-19T06:37:18.640Z,24.67
2022-11-19T06:39:45.362Z,24.02
2022-11-19T06:42:30.934Z,25.20
2022-11-19T06:44:57.614Z,23.65
2022-11-19T06:47:24.309Z,23.40
2022-11-19T06:49:51.071Z,26.38
2022-11-19T06:52:17.859Z,23.92
2022-11-19T06:54:44.583Z,23.52
2022-11-19T06:57:11.257Z,23.42
2022-11-19T06:59:39.072Z,22.48
2022-11-19T07:02:07.060Z,22.65
2022-11-19T07:04:34.059Z,21.52
2022-11-19T07:07:00.848Z,22.23
2022-11-19T07:09:27.639Z,22.20
2022-11-19T07:11:54.332Z,21.35
2022-11-19T07:14:21.108Z,22.52
2022-11-19T07:16:47.785Z,21.95
2022-11-19T07:19:14.516Z,21.45
2022-11-19T07:21:41.275Z,24.27
2022-11-19T07:24:09.975Z,21.55
2022-11-19T07:26:38.089Z,22.70
2022-11-19T07:29:07.022Z,22.35
2022-11-19T07:31:34.525Z,20.95
2022-11-19T07:34:01.840Z,22.90
2022-11-19T07:36:28.734Z,23.00
2022-11-19T07:38:55.451Z,23.27
2022-11-19T07:41:40.700Z,23.27
2022-11-19T07:44:07.646Z,23.38
2022-11-19T07:46:34.573Z,21.92
2022-11-19T07:49:01.305Z,22.30
2022-11-19T07:51:28.365Z,24.77
2022-11-19T07:53:56.306Z,21.70
2022-11-19T07:56:23.794Z,22.23
2022-11-19T07:58:53.967Z,22.85
2022-11-19T08:01:24.398Z,20.20
2022-11-19T08:03:56.349Z,22.80
2022-11-19T08:06:25.189Z,23.77
2022-11-19T08:08:51.975Z,23.27
2022-11-19T08:11:19.316Z,19.95
2022-11-19T08:13:46.161Z,19.42
2022-11-19T08:16:35.607Z,18.98
2022-11-19T08:19:08.776Z,19.55
2022-11-19T08:21:36.477Z,19.02
2022-11-19T08:24:03.727Z,18.65
2022-11-19T08:26:30.600Z,19.17
2022-11-19T08:28:57.311Z,18.80
2022-11-19T08:31:24.160Z,19.20
2022-11-19T08:33:50.849Z,18.20
2022-11-19T08:36:17.553Z,16.85
2022-11-19T08:38:44.305Z,21.65
2022-11-19T08:41:40.373Z,20.02
2022-11-19T08:44:07.114Z,17.23
2022-11-19T08:46:33.773Z,18.13
2022-11-19T08:49:00.515Z,17.88
2022-11-19T08:51:27.331Z,16.90
2022-11-19T08:53:54.135Z,17.50
2022-11-19T08:56:21.495Z,16.52
2022-11-19T08:58:48.326Z,16.20
2022-11-19T09:01:17.010Z,19.05
2022-11-19T09:03:44.721Z,17.60
2022-11-19T09:06:11.988Z,16.70
2022-11-19T09:08:39.428Z,16.23
2022-11-19T09:11:11.682Z,16.23
2022-11-19T09:13:38.837Z,16.13
2022-11-19T09:16:06.097Z,17.70
2022-11-19T09:18:33.677Z,17.88
2022-11-19T09:21:00.401Z,16.70
2022-11-19T09:23:28.300Z,16.48
2022-11-19T09:26:00.406Z,17.95
2022-11-19T09:28:28.408Z,16.63
2022-11-19T09:30:59.995Z,16.60
2022-11-19T09:33:27.390Z,16.15
2022-11-19T09:35:54.157Z,16.75
2022-11-19T09:38:21.077Z,15.38
2022-11-19T09:40:51.567Z,14.73
2022-11-19T09:43:53.488Z,15.85
2022-11-19T09:46:43.431Z,15.05
2022-11-19T09:49:30.809Z,17.17
2022-11-19T09:52:10.586Z,15.55
2022-11-19T09:54:41.225Z,16.17
2022-11-19T09:57:15.196Z,17.05
2022-11-19T09:59:42.151Z,15.90
2022-11-19T10:02:23.097Z,15.27
2022-11-19T10:04:51.251Z,15.57
2022-11-19T10:07:27.214Z,16.27
2022-11-19T10:10:12.249Z,15.23
2022-11-19T10:13:14.672Z,14.40
2022-11-19T10:16:19.090Z,14.77
2022-11-19T10:18:51.888Z,14.52
2022-11-19T10:21:37.178Z,14.77
2022-11-19T10:24:15.668Z,14.73
2022-11-19T10:26:42.450Z,14.88
2022-11-19T10:29:19.732Z,16.50
2022-11-19T10:31:49.816Z,16.25
2022-11-19T10:34:30.337Z,15.23
2022-11-19T10:37:02.400Z,15.95
2022-11-19T10:39:39.925Z,15.07
2022-11-19T10:42:22.313Z,16.42
2022-11-19T10:45:19.165Z,14.50
2022-11-19T10:48:07.620Z,15.27
2022-11-19T10:50:36.403Z,15.02
2022-11-19T10:53:47.209Z,15.40
2022-11-19T10:56:22.894Z,14.68
2022-11-19T10:58:58.572Z,15.65
2022-11-19T11:01:41.568Z,15.52
2022-11-19T11:04:26.163Z,14.82
2022-11-19T11:07:03.127Z,14.82
2022-11-19T11:09:41.270Z,16.40
2022-11-19T11:12:36.942Z,14.88
2022-11-19T11:15:43.774Z,15.65
2022-11-19T11:18:11.618Z,16.00
2022-11-19T11:20:45.220Z,14.02
2022-11-19T11:23:17.221Z,14.93
2022-11-19T11:26:02.650Z,15.35
2022-11-19T11:28:29.785Z,16.77
2022-11-19T11:31:04.535Z,15.95
2022-11-19T11:33:36.040Z,14.05
2022-11-19T11:36:07.430Z,16.15
2022-11-19T11:38:50.143Z,13.60
2022-11-19T11:44:15.935Z,13.98
2022-11-19T11:46:53.968Z,14.63
2022-11-19T11:49:35.256Z,14.60
2022-11-19T11:52:17.516Z,16.45
2022-11-19T11:55:04.665Z,15.25
2022-11-19T11:57:36.657Z,14.77
2022-11-19T12:00:59.175Z,14.20
2022-11-19T12:03:26.393Z,14.13
2022-11-19T12:06:09.109Z,13.88
2022-11-19T12:08:41.857Z,13.90
2022-11-19T12:11:27.076Z,14.00
2022-11-19T12:14:10.723Z,13.90
2022-11-19T12:16:52.808Z,13.90
2022-11-19T12:19:50.405Z,15.32
2022-11-19T12:22:46.465Z,15.07
2022-11-19T12:25:16.531Z,14.18
2022-11-19T12:28:07.902Z,14.67
2022-11-19T12:30:51.138Z,14.70
2022-11-19T12:33:23.805Z,14.05
2022-11-19T12:36:02.647Z,13.95
2022-11-19T12:38:47.376Z,14.20
2022-11-19T12:41:26.383Z,14.30
2022-11-19T12:43:59.871Z,13.75
2022-11-19T12:46:49.895Z,13.90
2022-11-19T12:49:22.511Z,14.73
2022-11-19T12:52:05.955Z,14.27
2022-11-19T12:54:41.484Z,14.88
2022-11-19T12:57:23.532Z,13.98
2022-11-19T13:00:14.144Z,15.90
2022-11-19T13:02:48.915Z,14.18
2022-11-19T13:05:39.839Z,15.32
2022-11-19T13:08:25.171Z,14.20
2022-11-19T13:11:16.551Z,15.80
2022-11-19T13:13:55.788Z,15.63
2022-11-19T13:16:25.193Z,14.00
2022-11-19T13:18:55.543Z,14.77
2022-11-19T13:21:31.280Z,15.50
2022-11-19T13:24:06.724Z,14.82
2022-11-19T13:26:35.919Z,14.02
2022-11-19T13:29:44.138Z,15.05
2022-11-19T13:32:10.871Z,14.93
2022-11-19T13:34:56.713Z,20.55
2022-11-19T13:37:38.501Z,16.92
2022-11-19T13:40:31.278Z,15.98
2022-11-19T13:43:31.678Z,15.57
2022-11-19T13:46:11.024Z,14.05
2022-11-19T13:48:42.982Z,15.43
2022-11-19T13:51:34.639Z,15.57
2022-11-19T13:54:03.876Z,13.63
2022-11-19T13:56:47.153Z,13.77
2022-11-19T13:59:28.667Z,13.70
2022-11-19T14:02:27.531Z,14.30
2022-11-19T14:05:09.296Z,14.57
2022-11-19T14:07:45.048Z,15.02
2022-11-19T14:10:27.803Z,15.20
2022-11-19T14:12:57.358Z,14.55
2022-11-19T14:16:10.946Z,14.15
2022-11-19T14:19:05.367Z,14.52
2022-11-19T14:21:53.935Z,13.63
2022-11-19T14:24:45.097Z,13.55
2022-11-19T14:29:47.293Z,14.85
2022-11-19T14:32:14.034Z,16.17
2022-11-19T14:34:42.770Z,15.23
2022-11-19T14:37:50.786Z,14.75
2022-11-19T14:40:43.552Z,14.98
2022-11-19T14:43:35.124Z,13.77
2022-11-19T14:48:38.645Z,15.32
2022-11-19T14:51:11.967Z,16.58
2022-11-19T14:54:07.172Z,15.07
2022-11-19T14:56:36.905Z,16.05
2022-11-19T14:59:16.588Z,16.27
2022-11-19T15:02:00.503Z,15.18
2022-11-19T15:05:02.812Z,15.90
2022-11-19T15:07:47.193Z,14.95
2022-11-19T15:10:17.659Z,15.13
2022-11-19T15:12:44.347Z,15.02
2022-11-19T15:15:20.434Z,14.18
2022-11-19T15:18:00.615Z,15.27
2022-11-19T15:20:47.244Z,14.25
2022-11-19T15:23:31.893Z,13.07
2022-11-19T15:26:04.544Z,13.95
2022-11-19T15:29:08.667Z,14.95
2022-11-19T15:31:38.527Z,13.57
2022-11-19T15:35:04.012Z,13.88
2022-11-19T15:38:04.295Z,13.65
2022-11-19T15:40:36.282Z,13.77
2022-11-19T15:43:30.739Z,14.68
2022-11-19T15:46:01.123Z,13.73
2022-11-19T15:49:01.944Z,14.55
2022-11-19T15:51:32.167Z,14.40
2022-11-19T15:54:07.451Z,14.88
2022-11-19T15:56:57.163Z,14.32
2022-11-19T15:59:23.984Z,14.10
2022-11-19T16:01:59.794Z,13.77
2022-11-19T16:04:39.573Z,14.07
2022-11-19T16:07:08.910Z,13.70
2022-11-19T16:09:37.201Z,13.57
2022-11-19T16:12:22.793Z,14.23
2022-11-19T16:15:10.694Z,13.48
2022-11-19T16:17:49.679Z,13.98
2022-11-19T16:20:20.571Z,13.52
2022-11-19T16:23:06.913Z,14.43
2022-11-19T16:25:42.124Z,15.32
2022-11-19T16:28:13.506Z,20.27
2022-11-19T16:30:51.081Z,15.05
2022-11-19T16:33:23.374Z,14.13
2022-11-19T16:35:53.163Z,14.05
2022-11-19T16:38:27.363Z,14.37
2022-11-19T16:41:14.315Z,14.20
2022-11-19T16:43:48.857Z,13.98
2022-11-19T16:46:20.199Z,14.55
2022-11-19T16:48:49.930Z,14.70
2022-11-19T16:51:25.987Z,15.00
2022-11-19T16:53:52.815Z,14.60
2022-11-19T16:56:19.976Z,14.13
2022-11-19T16:58:47.078Z,13.68
2022-11-19T17:01:18.744Z,14.25
2022-11-19T17:03:45.591Z,14.13
2022-11-19T17:06:24.080Z,15.15
2022-11-19T17:09:01.233Z,14.15
2022-11-19T17:12:00.283Z,14.45
2022-11-19T17:14:52.235Z,13.88
2022-11-19T17:17:39.461Z,13.13
2022-11-19T17:20:30.604Z,16.58
2022-11-19T17:22:58.472Z,14.93
2022-11-19T17:25:25.897Z,15.27
2022-11-19T17:27:58.373Z,14.52
2022-11-19T17:30:26.708Z,15.10
2022-11-19T17:32:57.543Z,13.98
2022-11-19T17:35:34.241Z,14.70
2022-11-19T17:38:18.096Z,14.45
2022-11-19T17:40:49.466Z,16.17
2022-11-19T17:43:40.682Z,15.80
2022-11-19T17:48:35.101Z,14.25
2022-11-19T17:51:01.927Z,14.38
2022-11-19T17:53:28.611Z,15.32
2022-11-19T17:55:57.523Z,14.10
2022-11-19T17:58:24.312Z,15.25
2022-11-19T18:00:51.169Z,15.05
2022-11-19T18:03:17.923Z,16.00
2022-11-19T18:05:48.540Z,15.18
2022-11-19T18:08:18.833Z,15.98
2022-11-19T18:10:49.757Z,15.98
2022-11-19T18:15:47.764Z,13.75
2022-11-19T18:18:14.487Z,14.95
2022-11-19T18:20:41.659Z,15.77
2022-11-19T18:23:12.627Z,15.63
2022-11-19T18:28:06.871Z,14.90
2022-11-19T18:30:33.893Z,14.55
2022-11-19T18:33:00.664Z,14.80
2022-11-19T18:35:27.973Z,15.13
2022-11-19T18:37:55.061Z,14.80
2022-11-19T18:40:21.861Z,14.82
2022-11-19T18:43:07.454Z,14.60
2022-11-19T18:45:34.147Z,13.32
2022-11-19T18:48:00.922Z,14.45
2022-11-19T18:50:30.070Z,17.95
2022-11-19T18:52:57.174Z,15.45
2022-11-19T18:55:23.921Z,14.82
2022-11-19T18:57:50.591Z,14.75
2022-11-19T19:00:17.768Z,16.67
2022-11-19T19:02:44.590Z,18.10
2022-11-19T19:05:11.499Z,16.70
2022-11-19T19:07:38.269Z,16.50
2022-11-19T19:10:05.329Z,15.45
2022-11-19T19:12:32.034Z,15.68
2022-11-19T19:14:58.933Z,15.05
2022-11-19T19:17:26.312Z,16.17
2022-11-19T19:19:53.296Z,17.08
2022-11-19T19:22:20.643Z,16.08
2022-11-19T19:24:48.050Z,16.55
2022-11-19T19:27:15.538Z,16.08
2022-11-19T19:29:42.388Z,16.35
2022-11-19T19:32:09.500Z,16.17
2022-11-19T19:34:36.629Z,16.08
2022-11-19T19:37:04.423Z,17.65
2022-11-19T19:39:31.126Z,16.42
2022-11-19T19:41:57.784Z,17.27
2022-11-19T19:44:24.531Z,17.60
2022-11-19T19:46:51.317Z,16.40
2022-11-19T19:49:18.190Z,17.25
2022-11-19T19:51:45.019Z,16.00
2022-11-19T19:54:11.704Z,17.15
2022-11-19T19:56:39.811Z,17.77
2022-11-19T19:59:06.864Z,16.13
2022-11-19T20:01:35.646Z,16.67
2022-11-19T20:04:08.487Z,16.23
2022-11-19T20:06:40.822Z,16.50
2022-11-19T20:09:09.536Z,17.42
2022-11-19T20:11:37.268Z,18.23
2022-11-19T20:14:04.090Z,17.35
2022-11-19T20:16:32.446Z,17.20
2022-11-19T20:19:00.294Z,17.38
2022-11-19T20:21:34.301Z,17.48
2022-11-19T20:24:05.923Z,16.63
2022-11-19T20:26:35.593Z,17.10
2022-11-19T20:29:05.496Z,17.70
2022-11-19T20:31:34.310Z,16.90
2022-11-19T20:34:03.650Z,16.50
2022-11-19T20:36:32.825Z,16.58
2022-11-19T20:38:59.843Z,16.40
2022-11-19T20:41:46.480Z,17.67
2022-11-19T20:44:20.900Z,16.33
2022-11-19T20:46:50.608Z,16.15
2022-11-19T20:49:18.682Z,17.23
2022-11-19T20:51:45.850Z,17.15
2022-11-19T20:54:13.017Z,15.88
2022-11-19T20:56:40.381Z,16.40
2022-11-19T20:59:07.627Z,23.65
2022-11-19T21:01:35.302Z,22.15
2022-11-19T21:04:02.406Z,20.80
2022-11-19T21:06:29.363Z,17.65
2022-11-19T21:08:56.737Z,17.90
2022-11-19T21:11:24.191Z,18.60
2022-11-19T21:13:51.145Z,16.92
2022-11-19T21:16:25.765Z,16.77
2022-11-19T21:18:52.766Z,16.95
2022-11-19T21:21:20.908Z,18.30
2022-11-19T21:23:48.138Z,18.10
2022-11-19T21:26:20.655Z,16.80
2022-11-19T21:28:51.668Z,16.80
2022-11-19T21:31:20.733Z,17.67
2022-11-19T21:33:47.519Z,16.13
2022-11-19T21:36:14.368Z,16.77
2022-11-19T21:38:41.245Z,17.88
2022-11-19T21:41:08.290Z,18.48
2022-11-19T21:43:35.445Z,22.35
2022-11-19T21:46:06.415Z,21.73
2022-11-19T21:51:00.009Z,19.42
2022-11-19T21:53:26.764Z,18.85
2022-11-19T21:55:56.818Z,18.58
2022-11-19T21:58:23.555Z,17.50
2022-11-19T22:00:50.353Z,18.20
2022-11-19T22:03:17.083Z,17.98
2022-11-19T22:05:43.862Z,18.40
2022-11-19T22:08:10.734Z,17.85
2022-11-19T22:10:40.264Z,18.33
2022-11-19T22:13:11.009Z,19.23
2022-11-19T22:15:37.743Z,18.77
2022-11-19T22:18:04.693Z,20.60
2022-11-19T22:20:31.389Z,18.83
2022-11-19T22:22:58.230Z,19.40
2022-11-19T22:25:25.396Z,18.35
2022-11-19T22:27:52.232Z,20.15
2022-11-19T22:30:19.060Z,17.50
2022-11-19T22:32:45.837Z,18.95
2022-11-19T22:35:12.547Z,19.38
2022-11-19T22:37:39.256Z,19.38
2022-11-19T22:40:06.534Z,19.77
2022-11-19T22:42:33.227Z,19.38
2022-11-19T22:44:59.982Z,19.08
2022-11-19T22:47:26.711Z,19.33
2022-11-19T22:49:53.459Z,18.83
2022-11-19T22:52:20.159Z,20.55
2022-11-19T22:54:47.304Z,20.45
2022-11-19T22:57:14.024Z,19.85
2022-11-19T22:59:40.811Z,20.27
2022-11-19T23:02:07.509Z,20.90
2022-11-19T23:04:34.196Z,19.95
2022-11-19T23:07:01.051Z,20.63
2022-11-19T23:09:27.880Z,19.27
2022-11-19T23:12:13.032Z,20.23
2022-11-19T23:14:39.821Z,20.08
2022-11-19T23:17:06.813Z,20.63
2022-11-19T23:19:33.496Z,19.45
2022-11-19T23:22:00.179Z,20.27
2022-11-19T23:24:26.972Z,19.35
2022-11-19T23:26:53.882Z,19.00
2022-11-19T23:29:21.041Z,20.88
2022-11-19T23:31:47.981Z,20.42
2022-11-19T23:34:14.774Z,21.50
2022-11-19T23:36:42.484Z,19.40
2022-11-19T23:39:15.175Z,19.83
2022-11-19T23:41:42.551Z,21.40
2022-11-19T23:44:09.391Z,21.38
2022-11-19T23:46:36.567Z,20.45
2022-11-19T23:49:03.932Z,20.90
2022-11-19T23:51:36.187Z,20.50
2022-11-19T23:54:03.782Z,19.27
2022-11-19T23:56:32.841Z,21.55
2022-11-19T23:59:04.020Z,21.38
